Beaufort County Airport


Codes: KARW/BFT
Name: Beaufort County Airport
City: Beaufort
Country: United States
Elevation: 10 ft.
Wikipedia:

Photos at Beaufort County Airport


   Photos courtesy of SpottingLog. You can add your own sightings and photos by signing up for a free trial today.



No photos found.

Weather at Beaufort County Airport


Time (UTC)DescriptionTempratureWindCloud coverageVisibilityPressureHumidity
23-May-2024 21:00Broken Clouds29°C9 mph, S83%10000m1016hPa56%
24-May-2024 00:00Overcast Clouds26°C9 mph, S92%10000m1015hPa70%
24-May-2024 03:00Broken Clouds23°C7 mph, S60%10000m1015hPa85%
24-May-2024 06:00Scattered Clouds22°C7 mph, SW31%10000m1014hPa87%
24-May-2024 09:00Scattered Clouds22°C4 mph, SW46%10000m1013hPa89%
24-May-2024 12:00Broken Clouds24°C4 mph, SW52%10000m1014hPa79%
24-May-2024 15:00Few Clouds29°C4 mph, SW19%10000m1014hPa52%
24-May-2024 18:00Scattered Clouds31°C9 mph, S42%10000m1012hPa50%
24-May-2024 21:00Light Rain25°C11 mph, S100%10000m1011hPa76%
25-May-2024 00:00Moderate Rain23°C9 mph, W98%3176m1012hPa92%
25-May-2024 03:00Moderate Rain22°C2 mph, SE87%10000m1013hPa94%
25-May-2024 06:00Light Rain22°C4 mph, S57%10000m1012hPa94%
25-May-2024 09:00Scattered Clouds22°C7 mph, SW39%10000m1011hPa93%
25-May-2024 12:00Light Rain23°C7 mph, W33%10000m1012hPa90%
25-May-2024 15:00Clear Sky30°C7 mph, NW1%10000m1012hPa52%
25-May-2024 18:00Few Clouds33°C7 mph, NW18%10000m1011hPa41%
25-May-2024 21:00Overcast Clouds30°C2 mph, SW96%10000m1010hPa53%
26-May-2024 00:00Overcast Clouds27°C4 mph, SW98%10000m1011hPa68%
26-May-2024 03:00Broken Clouds25°C4 mph, S59%10000m1012hPa75%
26-May-2024 06:00Broken Clouds24°C4 mph, SW73%10000m1012hPa75%
26-May-2024 09:00Scattered Clouds23°C4 mph, W44%10000m1011hPa81%
26-May-2024 12:00Few Clouds26°C4 mph, W22%10000m1013hPa76%
26-May-2024 15:00Clear Sky32°C4 mph, SW0%10000m1013hPa49%
26-May-2024 18:00Clear Sky34°C4 mph, SW6%10000m1012hPa42%
26-May-2024 21:00Overcast Clouds32°C7 mph, SW100%10000m1011hPa49%
27-May-2024 00:00Overcast Clouds27°C9 mph, S91%10000m1012hPa75%
27-May-2024 03:00Broken Clouds26°C7 mph, SW83%10000m1013hPa80%
27-May-2024 06:00Overcast Clouds25°C9 mph, SW91%10000m1012hPa79%
27-May-2024 09:00Broken Clouds24°C4 mph, SW71%10000m1012hPa87%
27-May-2024 12:00Broken Clouds26°C4 mph, W55%10000m1014hPa73%
27-May-2024 15:00Overcast Clouds31°C7 mph, SW98%10000m1014hPa49%
27-May-2024 18:00Overcast Clouds33°C9 mph, SW99%10000m1013hPa41%
27-May-2024 21:00Overcast Clouds32°C11 mph, S100%10000m1012hPa44%
28-May-2024 00:00Broken Clouds27°C9 mph, S72%10000m1012hPa72%
28-May-2024 03:00Scattered Clouds25°C7 mph, S28%10000m1013hPa84%
28-May-2024 06:00Scattered Clouds24°C4 mph, SW42%10000m1012hPa88%
28-May-2024 09:00Few Clouds23°C4 mph, SW14%10000m1012hPa81%
28-May-2024 12:00Light Rain23°C9 mph, SW41%10000m1014hPa84%
28-May-2024 15:00Overcast Clouds29°C9 mph, SW100%10000m1013hPa60%
28-May-2024 18:00Light Rain27°C11 mph, NW94%10000m1013hPa76%